Durhamville, NY (13054)

6:46 AM EST on December 19, 2014 (GMT -0500)
Upper Southbay on Oneida Lake, NY | Change Station
CLOSE
Current Station
Personal Weather Station
Location: Canastota, NY
Elevation: 384 ft
Nearby Weather Stations
Active Advisory: Winter Weather Advisory

Elev 384 ft 43.16 °N, 75.75 °W | Updated 12 minutes ago

Overcast
Overcast
26.4 °F
Feels Like 20 °F
N
5.3
Wind Variable Wind from NW

Today
High -- | Low -- °F
--% Chance of Precip.
Yesterday
High -- | Low -- °F
Precip. -- in
7:30 AM 4:29 PM
Waning Crescent, 8% visible
Pressure 30.06 in
Visibility 10.0 miles
Clouds Mostly Cloudy 2200 ft
Overcast 3100 ft
Windchill 20 °F
Dew Point 24 °F
Humidity 92%
Rainfall 0.00 in
Snow Depth Not available.
UV 0 out of 12
Pollen .10 out of 12
Air Quality Not available.
Flu Activity Not available.
METAR KRME 191053Z AUTO 30011KT 10SM BKN022 OVC031 M03/M06 A3004 RMK AO2 SLP178 T10331056

More Conditions Fewer Conditions

Pressure 30.06 in
Visibility 10.0 miles
Clouds Mostly Cloudy 2200 ft
Overcast 3100 ft
Windchill 20 °F
Dew Point 24 °F
Humidity 92%
Rainfall 0.00 in
Snow Depth Not available.
UV 0 out of 12
Pollen .10 out of 12
Air Quality Not available.
Flu Activity Not available.
METAR KRME 191053Z AUTO 30011KT 10SM BKN022 OVC031 M03/M06 A3004 RMK AO2 SLP178 T10331056

More Conditions Fewer Conditions

10-Day Weather Forecast

Almanac

Astronomy

Dec. 19, 2014 Rise Set
Actual Time
Civil Twilight
Nautical Twilight
Astronomical Twilight
Moon
Length of Visible Light
Length of Day
Tomorrow will be .
, % of the Moon is Illuminated

Today's Extremes

State Highs State Lows

Community

WunderPhotos

Upload Photos

1,778,966 photos uploaded!

WunderBlogs® & News

Nearby

Air Quality

  Air Quality AQ Index Pollutant
Not available.

Snow Depth

Station Depth Elevation

Earthquake Activity

City Distance Mag. Time & Date
Minimum magnitude displayed is 2.5.

Coastal Water Temperatures

Place Temperature

Nearby Weather Stations